sensor_id;sensor_type;location;lat;lon;timestamp;pressure;altitude;pressure_sealevel;temperature;humidity
60642;BME280;46837;52.446;-1.930;2023-02-15T00:00:09;101173.22;;;4.86;83.82
60642;BME280;46837;52.446;-1.930;2023-02-15T00:01:09;101168.73;;;4.84;83.76
60642;BME280;46837;52.446;-1.930;2023-02-15T00:02:09;101168.29;;;4.82;83.86
60642;BME280;46837;52.446;-1.930;2023-02-15T00:03:09;101166.06;;;4.81;83.75
60642;BME280;46837;52.446;-1.930;2023-02-15T00:04:09;101168.47;;;4.80;83.74
60642;BME280;46837;52.446;-1.930;2023-02-15T00:05:09;101166.95;;;4.77;83.74
60642;BME280;46837;52.446;-1.930;2023-02-15T00:06:09;101166.74;;;4.78;83.70
60642;BME280;46837;52.446;-1.930;2023-02-15T00:07:09;101166.43;;;4.76;83.69
60642;BME280;46837;52.446;-1.930;2023-02-15T00:08:09;101165.22;;;4.74;83.62
60642;BME280;46837;52.446;-1.930;2023-02-15T00:09:09;101164.46;;;4.72;83.65
60642;BME280;46837;52.446;-1.930;2023-02-15T00:10:09;101159.71;;;4.66;83.54
60642;BME280;46837;52.446;-1.930;2023-02-15T00:11:10;101154.97;;;4.64;83.78
60642;BME280;46837;52.446;-1.930;2023-02-15T00:12:09;101158.34;;;4.64;83.74
60642;BME280;46837;52.446;-1.930;2023-02-15T00:13:09;101156.48;;;4.63;83.75
60642;BME280;46837;52.446;-1.930;2023-02-15T00:15:09;101153.54;;;4.60;83.65
60642;BME280;46837;52.446;-1.930;2023-02-15T00:16:10;101154.21;;;4.57;83.63
60642;BME280;46837;52.446;-1.930;2023-02-15T00:17:09;101155.48;;;4.56;83.88
60642;BME280;46837;52.446;-1.930;2023-02-15T00:18:09;101155.28;;;4.55;84.01
60642;BME280;46837;52.446;-1.930;2023-02-15T00:19:09;101154.48;;;4.53;83.96
60642;BME280;46837;52.446;-1.930;2023-02-15T00:20:09;101155.16;;;4.48;83.87
60642;BME280;46837;52.446;-1.930;2023-02-15T00:21:10;101152.76;;;4.48;84.13
60642;BME280;46837;52.446;-1.930;2023-02-15T00:22:09;101152.56;;;4.47;84.04
60642;BME280;46837;52.446;-1.930;2023-02-15T00:23:09;101152.11;;;4.49;84.11
60642;BME280;46837;52.446;-1.930;2023-02-15T00:24:09;101148.94;;;4.49;83.94
60642;BME280;46837;52.446;-1.930;2023-02-15T00:25:09;101146.46;;;4.49;83.89
60642;BME280;46837;52.446;-1.930;2023-02-15T00:26:10;101148.50;;;4.47;83.72
60642;BME280;46837;52.446;-1.930;2023-02-15T00:27:09;101142.90;;;4.47;83.79
60642;BME280;46837;52.446;-1.930;2023-02-15T00:28:09;101145.27;;;4.44;83.59
60642;BME280;46837;52.446;-1.930;2023-02-15T00:29:09;101144.59;;;4.44;83.77
60642;BME280;46837;52.446;-1.930;2023-02-15T00:30:09;101141.64;;;4.41;83.58
60642;BME280;46837;52.446;-1.930;2023-02-15T00:31:10;101145.02;;;4.39;83.51
60642;BME280;46837;52.446;-1.930;2023-02-15T00:32:09;101142.96;;;4.38;83.68
60642;BME280;46837;52.446;-1.930;2023-02-15T00:33:09;101141.59;;;4.36;83.82
60642;BME280;46837;52.446;-1.930;2023-02-15T00:34:12;101136.32;;;4.35;83.89
60642;BME280;46837;52.446;-1.930;2023-02-15T00:35:09;101135.91;;;4.35;84.13
60642;BME280;46837;52.446;-1.930;2023-02-15T00:36:09;101131.75;;;4.32;84.05
60642;BME280;46837;52.446;-1.930;2023-02-15T00:37:09;101130.99;;;4.28;83.94
60642;BME280;46837;52.446;-1.930;2023-02-15T00:38:09;101131.84;;;4.30;84.23
60642;BME280;46837;52.446;-1.930;2023-02-15T00:39:09;101131.23;;;4.30;84.09
60642;BME280;46837;52.446;-1.930;2023-02-15T00:40:09;101129.53;;;4.30;84.09
60642;BME280;46837;52.446;-1.930;2023-02-15T00:41:09;101127.74;;;4.30;84.03
60642;BME280;46837;52.446;-1.930;2023-02-15T00:42:09;101129.04;;;4.30;84.06
60642;BME280;46837;52.446;-1.930;2023-02-15T00:43:09;101124.46;;;4.29;84.04
60642;BME280;46837;52.446;-1.930;2023-02-15T00:44:09;101124.26;;;4.29;84.04
60642;BME280;46837;52.446;-1.930;2023-02-15T00:45:09;101121.07;;;4.26;83.89
60642;BME280;46837;52.446;-1.930;2023-02-15T00:46:09;101121.72;;;4.26;84.04
60642;BME280;46837;52.446;-1.930;2023-02-15T00:47:09;101119.68;;;4.27;84.06
60642;BME280;46837;52.446;-1.930;2023-02-15T00:48:09;101114.82;;;4.27;83.92
60642;BME280;46837;52.446;-1.930;2023-02-15T00:49:09;101116.11;;;4.28;83.88
60642;BME280;46837;52.446;-1.930;2023-02-15T00:50:09;101112.14;;;4.26;83.69
60642;BME280;46837;52.446;-1.930;2023-02-15T00:51:09;101110.36;;;4.25;83.67
60642;BME280;46837;52.446;-1.930;2023-02-15T00:52:09;101107.59;;;4.21;83.41
60642;BME280;46837;52.446;-1.930;2023-02-15T00:53:09;101108.23;;;4.21;83.59
60642;BME280;46837;52.446;-1.930;2023-02-15T00:54:09;101108.53;;;4.18;83.47
60642;BME280;46837;52.446;-1.930;2023-02-15T00:55:09;101109.30;;;4.18;83.52
60642;BME280;46837;52.446;-1.930;2023-02-15T00:56:09;101107.53;;;4.17;83.41
60642;BME280;46837;52.446;-1.930;2023-02-15T00:57:09;101106.39;;;4.16;83.23
60642;BME280;46837;52.446;-1.930;2023-02-15T00:58:09;101105.48;;;4.12;83.20
60642;BME280;46837;52.446;-1.930;2023-02-15T00:59:09;101103.62;;;4.11;83.23
60642;BME280;46837;52.446;-1.930;2023-02-15T01:00:09;101099.09;;;4.11;83.21
60642;BME280;46837;52.446;-1.930;2023-02-15T01:01:10;101097.27;;;4.08;83.15
60642;BME280;46837;52.446;-1.930;2023-02-15T01:02:09;101096.81;;;4.03;83.12
60642;BME280;46837;52.446;-1.930;2023-02-15T01:03:09;101092.97;;;4.00;83.33
60642;BME280;46837;52.446;-1.930;2023-02-15T01:04:09;101091.34;;;4.02;83.63
60642;BME280;46837;52.446;-1.930;2023-02-15T01:05:09;101089.80;;;4.01;83.49
60642;BME280;46837;52.446;-1.930;2023-02-15T01:06:09;101085.02;;;4.01;83.47
60642;BME280;46837;52.446;-1.930;2023-02-15T01:07:09;101081.94;;;4.00;83.40
60642;BME280;46837;52.446;-1.930;2023-02-15T01:08:09;101081.18;;;3.98;83.51
60642;BME280;46837;52.446;-1.930;2023-02-15T01:09:09;101081.29;;;3.99;83.52
60642;BME280;46837;52.446;-1.930;2023-02-15T01:10:09;101077.94;;;3.96;83.48
60642;BME280;46837;52.446;-1.930;2023-02-15T01:11:10;101074.25;;;3.96;83.43
60642;BME280;46837;52.446;-1.930;2023-02-15T01:12:09;101078.67;;;3.97;83.41
60642;BME280;46837;52.446;-1.930;2023-02-15T01:13:09;101075.95;;;3.98;83.39
60642;BME280;46837;52.446;-1.930;2023-02-15T01:14:09;101070.07;;;3.97;83.33
60642;BME280;46837;52.446;-1.930;2023-02-15T01:15:09;101069.90;;;3.98;83.34
60642;BME280;46837;52.446;-1.930;2023-02-15T01:16:09;101067.35;;;3.98;83.32
60642;BME280;46837;52.446;-1.930;2023-02-15T01:17:09;101070.43;;;3.98;83.34
60642;BME280;46837;52.446;-1.930;2023-02-15T01:18:09;101067.95;;;4.00;83.36
60642;BME280;46837;52.446;-1.930;2023-02-15T01:19:09;101067.87;;;3.98;83.19
60642;BME280;46837;52.446;-1.930;2023-02-15T01:20:09;101063.01;;;3.97;83.12
60642;BME280;46837;52.446;-1.930;2023-02-15T01:21:13;101066.34;;;3.97;83.03
60642;BME280;46837;52.446;-1.930;2023-02-15T01:22:09;101062.40;;;3.97;82.98
60642;BME280;46837;52.446;-1.930;2023-02-15T01:23:09;101065.61;;;3.96;82.96
60642;BME280;46837;52.446;-1.930;2023-02-15T01:24:12;101061.91;;;3.91;82.82
60642;BME280;46837;52.446;-1.930;2023-02-15T01:25:09;101057.28;;;3.92;83.14
60642;BME280;46837;52.446;-1.930;2023-02-15T01:26:09;101057.89;;;3.92;83.08
60642;BME280;46837;52.446;-1.930;2023-02-15T01:27:09;101058.33;;;3.93;83.10
60642;BME280;46837;52.446;-1.930;2023-02-15T01:28:09;101059.70;;;3.87;82.89
60642;BME280;46837;52.446;-1.930;2023-02-15T01:29:09;101056.12;;;3.80;83.19
60642;BME280;46837;52.446;-1.930;2023-02-15T01:30:09;101060.96;;;3.85;83.58
60642;BME280;46837;52.446;-1.930;2023-02-15T01:31:15;101058.07;;;3.86;83.38
60642;BME280;46837;52.446;-1.930;2023-02-15T01:32:09;101056.71;;;3.83;83.11
60642;BME280;46837;52.446;-1.930;2023-02-15T01:33:09;101054.69;;;3.82;83.11
60642;BME280;46837;52.446;-1.930;2023-02-15T01:34:09;101053.03;;;3.82;83.10
60642;BME280;46837;52.446;-1.930;2023-02-15T01:35:09;101050.42;;;3.85;83.27
60642;BME280;46837;52.446;-1.930;2023-02-15T01:36:09;101054.46;;;3.86;83.22
60642;BME280;46837;52.446;-1.930;2023-02-15T01:37:09;101052.23;;;3.87;83.17
60642;BME280;46837;52.446;-1.930;2023-02-15T01:38:09;101050.73;;;3.88;83.24
60642;BME280;46837;52.446;-1.930;2023-02-15T01:39:09;101050.35;;;3.90;83.25
60642;BME280;46837;52.446;-1.930;2023-02-15T01:40:12;101052.74;;;3.91;83.23
60642;BME280;46837;52.446;-1.930;2023-02-15T01:41:13;101051.89;;;3.90;83.14
60642;BME280;46837;52.446;-1.930;2023-02-15T01:42:11;101049.43;;;3.88;83.14
60642;BME280;46837;52.446;-1.930;2023-02-15T01:43:11;101049.55;;;3.88;83.24
60642;BME280;46837;52.446;-1.930;2023-02-15T01:46:09;101047.12;;;3.89;83.01
60642;BME280;46837;52.446;-1.930;2023-02-15T01:47:11;101045.33;;;3.89;82.86
60642;BME280;46837;52.446;-1.930;2023-02-15T01:48:18;101044.73;;;3.88;82.96
60642;BME280;46837;52.446;-1.930;2023-02-15T01:49:13;101043.09;;;3.90;82.94
60642;BME280;46837;52.446;-1.930;2023-02-15T01:50:16;101042.24;;;3.90;82.98
60642;BME280;46837;52.446;-1.930;2023-02-15T01:51:09;101040.82;;;3.90;82.92
60642;BME280;46837;52.446;-1.930;2023-02-15T01:52:09;101036.88;;;3.91;82.91
60642;BME280;46837;52.446;-1.930;2023-02-15T01:53:55;101036.36;;;3.90;82.75
60642;BME280;46837;52.446;-1.930;2023-02-15T01:55:09;101041.16;;;3.89;82.67
60642;BME280;46837;52.446;-1.930;2023-02-15T01:56:17;101035.10;;;3.83;82.59
60642;BME280;46837;52.446;-1.930;2023-02-15T01:57:16;101036.18;;;3.77;82.60
60642;BME280;46837;52.446;-1.930;2023-02-15T01:58:09;101036.91;;;3.79;82.97
60642;BME280;46837;52.446;-1.930;2023-02-15T01:59:13;101037.02;;;3.80;82.97
60642;BME280;46837;52.446;-1.930;2023-02-15T02:00:09;101034.70;;;3.75;82.78
60642;BME280;46837;52.446;-1.930;2023-02-15T02:01:09;101036.56;;;3.75;83.04
60642;BME280;46837;52.446;-1.930;2023-02-15T02:02:09;101036.95;;;3.71;82.83
60642;BME280;46837;52.446;-1.930;2023-02-15T02:03:09;101030.04;;;3.66;82.94
60642;BME280;46837;52.446;-1.930;2023-02-15T02:05:11;101029.42;;;3.68;83.37
60642;BME280;46837;52.446;-1.930;2023-02-15T02:06:09;101032.02;;;3.67;83.21
60642;BME280;46837;52.446;-1.930;2023-02-15T02:07:09;101030.98;;;3.64;83.29
60642;BME280;46837;52.446;-1.930;2023-02-15T02:08:09;101029.77;;;3.63;83.48
60642;BME280;46837;52.446;-1.930;2023-02-15T02:09:09;101026.75;;;3.57;83.27
60642;BME280;46837;52.446;-1.930;2023-02-15T02:10:10;101024.53;;;3.56;83.60
60642;BME280;46837;52.446;-1.930;2023-02-15T02:11:11;101022.85;;;3.59;83.76
60642;BME280;46837;52.446;-1.930;2023-02-15T02:12:09;101015.71;;;3.61;83.52
60642;BME280;46837;52.446;-1.930;2023-02-15T02:13:09;101019.31;;;3.63;83.58
60642;BME280;46837;52.446;-1.930;2023-02-15T02:14:09;101019.29;;;3.66;83.55
60642;BME280;46837;52.446;-1.930;2023-02-15T02:15:09;101016.11;;;3.71;83.40
60642;BME280;46837;52.446;-1.930;2023-02-15T02:19:19;101010.22;;;3.65;82.81
60642;BME280;46837;52.446;-1.930;2023-02-15T02:28:22;100992.39;;;3.55;82.45
60642;BME280;46837;52.446;-1.930;2023-02-15T02:29:25;100990.20;;;3.56;82.73
60642;BME280;46837;52.446;-1.930;2023-02-15T02:31:21;100985.67;;;3.53;82.52
60642;BME280;46837;52.446;-1.930;2023-02-15T02:40:16;100967.59;;;3.45;83.00
60642;BME280;46837;52.446;-1.930;2023-02-15T02:42:18;100961.80;;;3.46;83.04
60642;BME280;46837;52.446;-1.930;2023-02-15T02:44:22;100957.58;;;3.46;82.69
60642;BME280;46837;52.446;-1.930;2023-02-15T02:45:14;100961.35;;;3.47;82.80
60642;BME280;46837;52.446;-1.930;2023-02-15T02:46:14;100956.19;;;3.49;82.70
60642;BME280;46837;52.446;-1.930;2023-02-15T02:47:21;100953.58;;;3.44;82.45
60642;BME280;46837;52.446;-1.930;2023-02-15T02:48:14;100949.84;;;3.39;82.66
60642;BME280;46837;52.446;-1.930;2023-02-15T02:49:09;100949.82;;;3.33;82.76
60642;BME280;46837;52.446;-1.930;2023-02-15T02:50:14;100947.36;;;3.32;83.12
60642;BME280;46837;52.446;-1.930;2023-02-15T02:51:09;100946.78;;;3.34;83.15
60642;BME280;46837;52.446;-1.930;2023-02-15T02:53:09;100938.29;;;3.30;83.48
60642;BME280;46837;52.446;-1.930;2023-02-15T02:54:09;100938.15;;;3.33;83.75
60642;BME280;46837;52.446;-1.930;2023-02-15T02:55:17;100933.97;;;3.35;83.53
60642;BME280;46837;52.446;-1.930;2023-02-15T02:57:09;100932.47;;;3.37;83.42
60642;BME280;46837;52.446;-1.930;2023-02-15T02:58:17;100932.15;;;3.34;83.22
60642;BME280;46837;52.446;-1.930;2023-02-15T02:59:14;100929.62;;;3.38;83.47
60642;BME280;46837;52.446;-1.930;2023-02-15T03:00:09;100931.08;;;3.37;83.10
60642;BME280;46837;52.446;-1.930;2023-02-15T03:03:11;100919.86;;;3.45;82.95
60642;BME280;46837;52.446;-1.930;2023-02-15T03:04:11;100923.20;;;3.49;82.94
60642;BME280;46837;52.446;-1.930;2023-02-15T03:05:13;100918.01;;;3.50;82.77
60642;BME280;46837;52.446;-1.930;2023-02-15T03:06:16;100923.89;;;3.49;82.58
60642;BME280;46837;52.446;-1.930;2023-02-15T03:07:11;100928.47;;;3.48;82.58
60642;BME280;46837;52.446;-1.930;2023-02-15T03:08:09;100924.25;;;3.49;82.56
60642;BME280;46837;52.446;-1.930;2023-02-15T03:09:14;100920.32;;;3.49;82.54
60642;BME280;46837;52.446;-1.930;2023-02-15T03:10:09;100921.70;;;3.49;82.44
60642;BME280;46837;52.446;-1.930;2023-02-15T03:11:09;100915.13;;;3.49;82.57
60642;BME280;46837;52.446;-1.930;2023-02-15T03:12:13;100918.28;;;3.52;82.58
60642;BME280;46837;52.446;-1.930;2023-02-15T03:13:09;100914.67;;;3.52;82.47
60642;BME280;46837;52.446;-1.930;2023-02-15T03:14:09;100909.72;;;3.53;82.46
60642;BME280;46837;52.446;-1.930;2023-02-15T03:15:17;100905.93;;;3.56;82.63
60642;BME280;46837;52.446;-1.930;2023-02-15T03:16:13;100903.36;;;3.58;82.40
60642;BME280;46837;52.446;-1.930;2023-02-15T03:17:09;100899.86;;;3.55;82.22
60642;BME280;46837;52.446;-1.930;2023-02-15T03:18:09;100894.95;;;3.57;82.33
60642;BME280;46837;52.446;-1.930;2023-02-15T03:19:17;100889.14;;;3.58;82.27
60642;BME280;46837;52.446;-1.930;2023-02-15T03:20:14;100887.56;;;3.58;82.06
60642;BME280;46837;52.446;-1.930;2023-02-15T03:21:09;100887.08;;;3.58;82.05
60642;BME280;46837;52.446;-1.930;2023-02-15T03:22:18;100883.18;;;3.59;82.00
60642;BME280;46837;52.446;-1.930;2023-02-15T03:24:11;100881.64;;;3.58;81.85
60642;BME280;46837;52.446;-1.930;2023-02-15T03:25:14;100885.32;;;3.60;81.88
60642;BME280;46837;52.446;-1.930;2023-02-15T03:26:09;100883.66;;;3.60;81.82
60642;BME280;46837;52.446;-1.930;2023-02-15T03:27:12;100883.82;;;3.61;81.80
60642;BME280;46837;52.446;-1.930;2023-02-15T03:28:13;100883.49;;;3.61;81.72
60642;BME280;46837;52.446;-1.930;2023-02-15T03:29:09;100880.64;;;3.62;81.82
60642;BME280;46837;52.446;-1.930;2023-02-15T03:30:09;100880.11;;;3.63;81.78
60642;BME280;46837;52.446;-1.930;2023-02-15T03:31:09;100878.91;;;3.66;81.91
60642;BME280;46837;52.446;-1.930;2023-02-15T03:32:10;100879.25;;;3.64;81.79
60642;BME280;46837;52.446;-1.930;2023-02-15T03:33:09;100875.11;;;3.65;81.81
60642;BME280;46837;52.446;-1.930;2023-02-15T03:34:10;100875.89;;;3.64;81.68
60642;BME280;46837;52.446;-1.930;2023-02-15T03:35:09;100875.70;;;3.62;81.56
60642;BME280;46837;52.446;-1.930;2023-02-15T03:36:18;100870.93;;;3.66;81.71
60642;BME280;46837;52.446;-1.930;2023-02-15T03:38:09;100867.58;;;3.69;81.66
60642;BME280;46837;52.446;-1.930;2023-02-15T03:41:13;100861.64;;;3.73;81.21
60642;BME280;46837;52.446;-1.930;2023-02-15T03:42:17;100861.15;;;3.68;80.82
60642;BME280;46837;52.446;-1.930;2023-02-15T03:43:21;100861.73;;;3.66;80.81
60642;BME280;46837;52.446;-1.930;2023-02-15T03:45:14;100866.26;;;3.62;80.81
60642;BME280;46837;52.446;-1.930;2023-02-15T03:47:13;100869.06;;;3.61;80.98
60642;BME280;46837;52.446;-1.930;2023-02-15T03:48:09;100867.07;;;3.62;81.00
60642;BME280;46837;52.446;-1.930;2023-02-15T03:50:16;100867.41;;;3.59;81.10
60642;BME280;46837;52.446;-1.930;2023-02-15T03:51:18;100861.94;;;3.59;81.14
60642;BME280;46837;52.446;-1.930;2023-02-15T03:52:09;100870.52;;;3.60;81.26
60642;BME280;46837;52.446;-1.930;2023-02-15T03:53:11;100869.64;;;3.59;81.12
60642;BME280;46837;52.446;-1.930;2023-02-15T03:55:09;100862.37;;;3.61;81.16
60642;BME280;46837;52.446;-1.930;2023-02-15T03:56:09;100862.20;;;3.63;81.17
60642;BME280;46837;52.446;-1.930;2023-02-15T03:58:13;100855.55;;;3.63;81.03
60642;BME280;46837;52.446;-1.930;2023-02-15T03:59:13;100852.50;;;3.64;81.11
60642;BME280;46837;52.446;-1.930;2023-02-15T04:00:21;100850.68;;;3.64;81.05
60642;BME280;46837;52.446;-1.930;2023-02-15T04:01:23;100851.65;;;3.64;80.97
60642;BME280;46837;52.446;-1.930;2023-02-15T04:02:19;100848.37;;;3.64;80.98
60642;BME280;46837;52.446;-1.930;2023-02-15T04:03:22;100847.72;;;3.64;80.84
60642;BME280;46837;52.446;-1.930;2023-02-15T04:04:18;100850.19;;;3.65;80.85
60642;BME280;46837;52.446;-1.930;2023-02-15T04:05:09;100847.61;;;3.63;80.71
60642;BME280;46837;52.446;-1.930;2023-02-15T04:06:09;100846.79;;;3.64;80.76
60642;BME280;46837;52.446;-1.930;2023-02-15T04:07:09;100848.09;;;3.64;80.75
60642;BME280;46837;52.446;-1.930;2023-02-15T04:08:09;100846.79;;;3.65;80.76
60642;BME280;46837;52.446;-1.930;2023-02-15T04:09:13;100847.96;;;3.64;80.63
60642;BME280;46837;52.446;-1.930;2023-02-15T04:10:13;100850.70;;;3.66;80.77
60642;BME280;46837;52.446;-1.930;2023-02-15T04:11:09;100847.25;;;3.67;80.70
60642;BME280;46837;52.446;-1.930;2023-02-15T04:12:09;100844.73;;;3.68;80.67
60642;BME280;46837;52.446;-1.930;2023-02-15T04:13:09;100841.70;;;3.67;80.60
60642;BME280;46837;52.446;-1.930;2023-02-15T04:14:13;100840.32;;;3.67;80.60
60642;BME280;46837;52.446;-1.930;2023-02-15T04:15:13;100837.96;;;3.68;80.66
60642;BME280;46837;52.446;-1.930;2023-02-15T04:16:09;100836.54;;;3.68;80.56
60642;BME280;46837;52.446;-1.930;2023-02-15T04:17:09;100835.48;;;3.68;80.56
60642;BME280;46837;52.446;-1.930;2023-02-15T04:18:09;100830.31;;;3.66;80.41
60642;BME280;46837;52.446;-1.930;2023-02-15T04:19:13;100832.01;;;3.66;80.35
60642;BME280;46837;52.446;-1.930;2023-02-15T04:20:13;100829.64;;;3.64;80.32
60642;BME280;46837;52.446;-1.930;2023-02-15T04:21:13;100827.76;;;3.65;80.43
60642;BME280;46837;52.446;-1.930;2023-02-15T04:22:13;100827.69;;;3.64;80.33
60642;BME280;46837;52.446;-1.930;2023-02-15T04:23:13;100825.43;;;3.62;80.23
60642;BME280;46837;52.446;-1.930;2023-02-15T04:24:13;100824.09;;;3.63;80.27
60642;BME280;46837;52.446;-1.930;2023-02-15T04:25:13;100821.54;;;3.62;80.29
60642;BME280;46837;52.446;-1.930;2023-02-15T04:26:09;100822.39;;;3.63;80.31
60642;BME280;46837;52.446;-1.930;2023-02-15T04:27:09;100818.59;;;3.62;80.27
60642;BME280;46837;52.446;-1.930;2023-02-15T04:28:10;100818.90;;;3.58;80.13
60642;BME280;46837;52.446;-1.930;2023-02-15T04:29:09;100821.41;;;3.58;80.29
60642;BME280;46837;52.446;-1.930;2023-02-15T04:30:09;100823.54;;;3.57;80.33
60642;BME280;46837;52.446;-1.930;2023-02-15T04:31:09;100819.91;;;3.54;80.31
60642;BME280;46837;52.446;-1.930;2023-02-15T04:32:09;100818.70;;;3.47;80.38
60642;BME280;46837;52.446;-1.930;2023-02-15T04:33:09;100818.12;;;3.48;80.75
60642;BME280;46837;52.446;-1.930;2023-02-15T04:34:09;100813.73;;;3.51;80.83
60642;BME280;46837;52.446;-1.930;2023-02-15T04:35:09;100815.05;;;3.52;80.81
60642;BME280;46837;52.446;-1.930;2023-02-15T04:36:09;100815.50;;;3.52;80.80
60642;BME280;46837;52.446;-1.930;2023-02-15T04:37:09;100817.89;;;3.52;80.79
60642;BME280;46837;52.446;-1.930;2023-02-15T04:38:09;100815.10;;;3.52;80.65
60642;BME280;46837;52.446;-1.930;2023-02-15T04:39:09;100812.62;;;3.52;80.81
60642;BME280;46837;52.446;-1.930;2023-02-15T04:40:10;100812.04;;;3.54;80.89
60642;BME280;46837;52.446;-1.930;2023-02-15T04:41:09;100806.20;;;3.55;80.89
60642;BME280;46837;52.446;-1.930;2023-02-15T04:42:09;100804.14;;;3.54;80.78
60642;BME280;46837;52.446;-1.930;2023-02-15T04:43:09;100801.98;;;3.55;80.83
60642;BME280;46837;52.446;-1.930;2023-02-15T04:44:09;100807.95;;;3.50;80.85
60642;BME280;46837;52.446;-1.930;2023-02-15T04:45:09;100805.97;;;3.53;81.10
60642;BME280;46837;52.446;-1.930;2023-02-15T04:46:09;100804.79;;;3.54;80.96
60642;BME280;46837;52.446;-1.930;2023-02-15T04:47:09;100800.79;;;3.52;80.80
60642;BME280;46837;52.446;-1.930;2023-02-15T04:48:09;100799.64;;;3.50;80.86
60642;BME280;46837;52.446;-1.930;2023-02-15T04:49:09;100802.15;;;3.49;80.97
60642;BME280;46837;52.446;-1.930;2023-02-15T04:50:09;100796.93;;;3.48;80.96
60642;BME280;46837;52.446;-1.930;2023-02-15T04:51:09;100802.15;;;3.49;81.02
60642;BME280;46837;52.446;-1.930;2023-02-15T04:52:09;100801.74;;;3.50;80.84
60642;BME280;46837;52.446;-1.930;2023-02-15T04:53:09;100803.10;;;3.52;80.94
60642;BME280;46837;52.446;-1.930;2023-02-15T04:54:09;100801.08;;;3.51;80.88
60642;BME280;46837;52.446;-1.930;2023-02-15T04:55:09;100798.40;;;3.53;80.96
60642;BME280;46837;52.446;-1.930;2023-02-15T04:56:09;100794.90;;;3.54;81.01
60642;BME280;46837;52.446;-1.930;2023-02-15T04:57:09;100793.36;;;3.50;80.86
60642;BME280;46837;52.446;-1.930;2023-02-15T04:58:09;100794.32;;;3.45;80.97
60642;BME280;46837;52.446;-1.930;2023-02-15T04:59:10;100793.47;;;3.45;81.17
60642;BME280;46837;52.446;-1.930;2023-02-15T05:00:09;100794.38;;;3.43;81.18
60642;BME280;46837;52.446;-1.930;2023-02-15T05:01:09;100793.71;;;3.45;81.29
60642;BME280;46837;52.446;-1.930;2023-02-15T05:02:09;100790.95;;;3.46;81.35
60642;BME280;46837;52.446;-1.930;2023-02-15T05:03:09;100786.56;;;3.42;81.13
60642;BME280;46837;52.446;-1.930;2023-02-15T05:04:09;100788.65;;;3.40;81.58
60642;BME280;46837;52.446;-1.930;2023-02-15T05:05:09;100789.03;;;3.43;81.77
60642;BME280;46837;52.446;-1.930;2023-02-15T05:06:09;100787.29;;;3.43;81.79
60642;BME280;46837;52.446;-1.930;2023-02-15T05:07:09;100787.07;;;3.44;81.94
60642;BME280;46837;52.446;-1.930;2023-02-15T05:08:09;100788.68;;;3.46;82.18
60642;BME280;46837;52.446;-1.930;2023-02-15T05:09:10;100788.05;;;3.49;82.41
60642;BME280;46837;52.446;-1.930;2023-02-15T05:10:09;100789.96;;;3.49;82.36
60642;BME280;46837;52.446;-1.930;2023-02-15T05:11:09;100788.75;;;3.52;82.36
60642;BME280;46837;52.446;-1.930;2023-02-15T05:12:09;100789.23;;;3.53;82.28
60642;BME280;46837;52.446;-1.930;2023-02-15T05:13:09;100791.02;;;3.52;82.52
60642;BME280;46837;52.446;-1.930;2023-02-15T05:14:09;100788.77;;;3.55;82.67
60642;BME280;46837;52.446;-1.930;2023-02-15T05:15:09;100785.79;;;3.57;82.75
60642;BME280;46837;52.446;-1.930;2023-02-15T05:16:09;100783.73;;;3.57;82.74
60642;BME280;46837;52.446;-1.930;2023-02-15T05:17:09;100784.93;;;3.60;82.75
60642;BME280;46837;52.446;-1.930;2023-02-15T05:18:09;100788.16;;;3.61;82.78
60642;BME280;46837;52.446;-1.930;2023-02-15T05:19:09;100786.11;;;3.63;82.84
60642;BME280;46837;52.446;-1.930;2023-02-15T05:20:09;100783.22;;;3.65;82.93
60642;BME280;46837;52.446;-1.930;2023-02-15T05:21:09;100787.30;;;3.67;82.90
60642;BME280;46837;52.446;-1.930;2023-02-15T05:22:09;100788.79;;;3.68;82.93
60642;BME280;46837;52.446;-1.930;2023-02-15T05:23:09;100784.59;;;3.70;82.93
60642;BME280;46837;52.446;-1.930;2023-02-15T05:24:13;100784.22;;;3.71;82.92
60642;BME280;46837;52.446;-1.930;2023-02-15T05:25:13;100784.44;;;3.69;83.14
60642;BME280;46837;52.446;-1.930;2023-02-15T05:26:15;100781.18;;;3.71;82.92
60642;BME280;46837;52.446;-1.930;2023-02-15T05:27:13;100782.45;;;3.75;82.73
60642;BME280;46837;52.446;-1.930;2023-02-15T05:28:13;100779.51;;;3.76;82.74
60642;BME280;46837;52.446;-1.930;2023-02-15T05:29:09;100774.79;;;3.78;82.71
60642;BME280;46837;52.446;-1.930;2023-02-15T05:30:09;100767.02;;;3.77;82.70
60642;BME280;46837;52.446;-1.930;2023-02-15T05:31:14;100768.79;;;3.78;82.63
60642;BME280;46837;52.446;-1.930;2023-02-15T05:32:09;100770.25;;;3.78;82.65
60642;BME280;46837;52.446;-1.930;2023-02-15T05:33:09;100770.14;;;3.77;82.76
60642;BME280;46837;52.446;-1.930;2023-02-15T05:34:09;100770.66;;;3.78;82.76
60642;BME280;46837;52.446;-1.930;2023-02-15T05:35:11;100768.91;;;3.78;82.69
60642;BME280;46837;52.446;-1.930;2023-02-15T05:36:09;100769.22;;;3.80;82.56
60642;BME280;46837;52.446;-1.930;2023-02-15T05:37:09;100762.50;;;3.79;82.46
60642;BME280;46837;52.446;-1.930;2023-02-15T05:38:09;100759.09;;;3.79;82.38
60642;BME280;46837;52.446;-1.930;2023-02-15T05:39:09;100756.38;;;3.79;82.29
60642;BME280;46837;52.446;-1.930;2023-02-15T05:40:09;100755.11;;;3.80;82.35
60642;BME280;46837;52.446;-1.930;2023-02-15T05:41:09;100754.88;;;3.79;82.24
60642;BME280;46837;52.446;-1.930;2023-02-15T05:42:09;100757.57;;;3.76;82.47
60642;BME280;46837;52.446;-1.930;2023-02-15T05:43:09;100758.49;;;3.75;82.58
60642;BME280;46837;52.446;-1.930;2023-02-15T05:44:09;100757.56;;;3.74;82.58
60642;BME280;46837;52.446;-1.930;2023-02-15T05:45:09;100758.63;;;3.76;82.54
60642;BME280;46837;52.446;-1.930;2023-02-15T05:46:09;100757.27;;;3.75;82.51
60642;BME280;46837;52.446;-1.930;2023-02-15T05:47:09;100756.36;;;3.76;82.51
60642;BME280;46837;52.446;-1.930;2023-02-15T05:48:09;100758.80;;;3.76;82.57
60642;BME280;46837;52.446;-1.930;2023-02-15T05:49:09;100756.28;;;3.76;82.49
60642;BME280;46837;52.446;-1.930;2023-02-15T05:50:09;100759.91;;;3.74;82.44
60642;BME280;46837;52.446;-1.930;2023-02-15T05:51:10;100765.27;;;3.73;82.53
60642;BME280;46837;52.446;-1.930;2023-02-15T05:52:09;100767.95;;;3.72;82.56
60642;BME280;46837;52.446;-1.930;2023-02-15T05:53:09;100770.07;;;3.71;82.62